createdAt,value
2022-09-25T00:01:58.482Z,100883.88
2022-09-25T00:04:28.270Z,100881.75
2022-09-25T00:06:56.463Z,100889.41
2022-09-25T00:09:24.581Z,100876.66
2022-09-25T00:11:52.732Z,100878.59
2022-09-25T00:14:20.882Z,100878.28
2022-09-25T00:16:49.051Z,100877.41
2022-09-25T00:19:40.355Z,100875.06
2022-09-25T00:22:09.925Z,100868.88
2022-09-25T00:24:38.157Z,100860.84
2022-09-25T00:27:08.743Z,100865.44
2022-09-25T00:29:37.463Z,100865.44
2022-09-25T00:32:06.024Z,100868.00
2022-09-25T00:34:34.231Z,100865.25
2022-09-25T00:37:02.372Z,100866.34
2022-09-25T00:39:32.360Z,100861.28
2022-09-25T00:42:01.150Z,100860.50
2022-09-25T00:44:56.545Z,100860.81
2022-09-25T00:47:52.500Z,100851.66
2022-09-25T00:50:28.070Z,100850.41
2022-09-25T00:53:04.066Z,100836.94
2022-09-25T00:55:35.316Z,100835.22
2022-09-25T00:58:04.976Z,100834.28
2022-09-25T01:00:34.175Z,100827.47
2022-09-25T01:03:05.215Z,100830.66
2022-09-25T01:05:36.834Z,100827.97
2022-09-25T01:08:07.175Z,100827.97
2022-09-25T01:10:37.844Z,100820.50
2022-09-25T01:13:06.660Z,100821.59
2022-09-25T01:15:41.487Z,100818.13
2022-09-25T01:18:20.041Z,100824.16
2022-09-25T01:21:14.899Z,100829.66
2022-09-25T01:24:10.707Z,100825.72
2022-09-25T01:27:03.896Z,100832.66
2022-09-25T01:29:41.235Z,100823.97
2022-09-25T01:32:20.720Z,100817.91
2022-09-25T01:34:57.538Z,100823.03
2022-09-25T01:37:31.036Z,100820.91
2022-09-25T01:40:07.823Z,100806.34
2022-09-25T01:42:41.118Z,100808.91
2022-09-25T01:45:17.494Z,100819.03
2022-09-25T01:47:50.338Z,100813.47
2022-09-25T01:50:25.393Z,100815.69
2022-09-25T01:52:57.059Z,100816.66
2022-09-25T01:55:31.673Z,100815.06
2022-09-25T01:58:09.299Z,100809.06
2022-09-25T02:00:41.696Z,100812.41
2022-09-25T02:03:17.267Z,100807.81
2022-09-25T02:05:47.839Z,100806.56
2022-09-25T02:08:22.350Z,100800.72
2022-09-25T02:10:56.915Z,100798.47
2022-09-25T02:13:34.210Z,100792.47
2022-09-25T02:16:08.859Z,100791.00
2022-09-25T02:18:54.540Z,100798.78
2022-09-25T02:21:30.369Z,100804.78
2022-09-25T02:24:07.439Z,100800.97
2022-09-25T02:26:37.765Z,100805.56
2022-09-25T02:29:08.265Z,100808.41
2022-09-25T02:31:40.579Z,100807.91
2022-09-25T02:34:14.561Z,100804.59
2022-09-25T02:36:45.023Z,100798.28
2022-09-25T02:39:16.875Z,100805.88
2022-09-25T02:42:20.388Z,100803.66
2022-09-25T02:45:06.760Z,100803.91
2022-09-25T02:47:43.707Z,100812.63
2022-09-25T02:50:21.883Z,100808.41
2022-09-25T02:52:58.124Z,100813.28
2022-09-25T02:55:34.178Z,100817.41
2022-09-25T02:58:08.923Z,100825.50
2022-09-25T03:00:39.007Z,100828.66
2022-09-25T03:03:13.647Z,100826.44
2022-09-25T03:05:42.910Z,100822.78
2022-09-25T03:08:29.007Z,100819.50
2022-09-25T03:10:59.408Z,100818.19
2022-09-25T03:13:32.092Z,100823.00
2022-09-25T03:16:03.919Z,100817.59
2022-09-25T03:18:34.070Z,100832.13
2022-09-25T03:21:04.307Z,100826.72
2022-09-25T03:23:32.654Z,100831.38
2022-09-25T03:26:00.940Z,100819.25
2022-09-25T03:28:29.093Z,100825.72
2022-09-25T03:30:59.361Z,100836.25
2022-09-25T03:33:28.910Z,100824.13
2022-09-25T03:36:11.178Z,100825.13
2022-09-25T03:38:41.349Z,100829.91
2022-09-25T03:41:11.155Z,100823.09
2022-09-25T03:43:40.964Z,100819.59
2022-09-25T03:46:11.215Z,100816.69
2022-09-25T03:48:40.320Z,100811.09
2022-09-25T03:51:10.811Z,100820.31
2022-09-25T03:53:39.290Z,100822.56
2022-09-25T03:56:09.681Z,100822.06
2022-09-25T03:58:37.875Z,100826.56
2022-09-25T04:01:07.610Z,100828.75
2022-09-25T04:03:36.203Z,100825.44
2022-09-25T04:06:06.238Z,100837.47
2022-09-25T04:08:37.501Z,100847.81
2022-09-25T04:11:06.348Z,100844.47
2022-09-25T04:13:36.691Z,100844.25
2022-09-25T04:16:08.419Z,100853.91
2022-09-25T04:18:37.642Z,100855.38
2022-09-25T04:21:08.475Z,100853.09
2022-09-25T04:23:39.155Z,100851.41
2022-09-25T04:26:07.975Z,100849.91
2022-09-25T04:28:37.246Z,100847.66
2022-09-25T04:31:05.845Z,100855.66
2022-09-25T04:33:48.424Z,100849.84
2022-09-25T04:36:18.239Z,100857.00
2022-09-25T04:38:48.077Z,100858.84
2022-09-25T04:41:17.713Z,100861.78
2022-09-25T04:43:45.916Z,100852.22
2022-09-25T04:46:21.090Z,100857.19
2022-09-25T04:48:50.153Z,100860.88
2022-09-25T04:51:18.328Z,100852.38
2022-09-25T04:53:47.836Z,100858.50
2022-09-25T04:56:17.096Z,100860.78
2022-09-25T04:58:47.644Z,100855.31
2022-09-25T05:01:17.599Z,100846.59
2022-09-25T05:03:48.706Z,100852.59
2022-09-25T05:06:18.065Z,100855.22
2022-09-25T05:08:49.504Z,100849.50
2022-09-25T05:11:18.100Z,100847.91
2022-09-25T05:13:46.787Z,100848.22
2022-09-25T05:16:15.488Z,100846.91
2022-09-25T05:18:43.800Z,100850.09
2022-09-25T05:21:12.048Z,100843.66
2022-09-25T05:23:40.199Z,100847.84
2022-09-25T05:26:11.238Z,100840.47
2022-09-25T05:28:39.471Z,100845.09
2022-09-25T05:31:08.240Z,100855.13
2022-09-25T05:33:37.336Z,100853.63
2022-09-25T05:36:07.408Z,100852.41
2022-09-25T05:38:37.113Z,100860.78
2022-09-25T05:41:06.823Z,100853.81
2022-09-25T05:43:41.659Z,100850.78
2022-09-25T05:46:10.806Z,100850.97
2022-09-25T05:48:39.164Z,100854.44
2022-09-25T05:51:07.979Z,100862.72
2022-09-25T05:53:36.216Z,100853.97
2022-09-25T05:56:06.402Z,100857.09
2022-09-25T05:58:36.794Z,100856.69
2022-09-25T06:01:06.864Z,100865.88
2022-09-25T06:03:36.277Z,100853.09
2022-09-25T06:06:04.577Z,100855.31
2022-09-25T06:08:32.814Z,100855.75
2022-09-25T06:11:02.513Z,100860.69
2022-09-25T06:13:34.960Z,100860.31
2022-09-25T06:16:15.423Z,100857.00
2022-09-25T06:18:43.550Z,100861.69
2022-09-25T06:21:11.657Z,100860.44
2022-09-25T06:23:39.924Z,100865.63
2022-09-25T06:26:09.496Z,100861.91
2022-09-25T06:28:38.517Z,100859.66
2022-09-25T06:31:08.535Z,100856.16
2022-09-25T06:33:36.699Z,100862.41
2022-09-25T06:36:07.224Z,100864.03
2022-09-25T06:38:35.549Z,100867.97
2022-09-25T06:41:03.769Z,100863.28
2022-09-25T06:43:31.969Z,100861.56
2022-09-25T06:46:04.068Z,100860.50
2022-09-25T06:48:33.783Z,100868.13
2022-09-25T06:51:02.347Z,100865.53
2022-09-25T06:53:30.697Z,100860.94
2022-09-25T06:56:00.233Z,100866.31
2022-09-25T06:58:30.357Z,100869.53
2022-09-25T07:00:59.077Z,100870.56
2022-09-25T07:03:48.473Z,100874.94
2022-09-25T07:06:19.720Z,100873.72
2022-09-25T07:08:49.196Z,100881.16
2022-09-25T07:11:19.822Z,100879.13
2022-09-25T07:13:55.300Z,100866.13
2022-09-25T07:16:26.258Z,100865.88
2022-09-25T07:18:55.721Z,100861.59
2022-09-25T07:21:27.990Z,100862.84
2022-09-25T07:23:58.598Z,100869.97
2022-09-25T07:26:28.479Z,100872.00
2022-09-25T07:28:58.637Z,100876.66
2022-09-25T07:31:29.654Z,100877.00
2022-09-25T07:34:00.357Z,100867.38
2022-09-25T07:36:30.706Z,100879.13
2022-09-25T07:38:59.084Z,100865.75
2022-09-25T07:41:27.375Z,100869.09
2022-09-25T07:44:40.030Z,100867.69
2022-09-25T07:46:46.364Z,100875.63
2022-09-25T07:49:15.384Z,100871.63
2022-09-25T07:51:45.002Z,100868.00
2022-09-25T07:54:13.246Z,100868.03
2022-09-25T07:56:41.554Z,100878.34
2022-09-25T07:59:09.945Z,100877.31
2022-09-25T08:01:43.322Z,100881.41
2022-09-25T08:04:13.279Z,100880.63
2022-09-25T08:06:41.526Z,100882.00
2022-09-25T08:09:12.369Z,100884.00
2022-09-25T08:11:40.605Z,100874.91
2022-09-25T08:14:08.805Z,100880.84
2022-09-25T08:16:37.066Z,100876.38
2022-09-25T08:19:05.294Z,100871.06
2022-09-25T08:21:33.443Z,100867.25
2022-09-25T08:24:01.912Z,100868.78
2022-09-25T08:26:32.086Z,100864.06
2022-09-25T08:29:00.540Z,100871.13
2022-09-25T08:31:29.247Z,100862.19
2022-09-25T08:34:06.151Z,100862.09
2022-09-25T08:36:43.570Z,100865.91
2022-09-25T08:39:12.277Z,100871.56
2022-09-25T08:41:48.985Z,100867.63
2022-09-25T08:44:25.633Z,100866.78
2022-09-25T08:47:19.433Z,100860.28
2022-09-25T08:49:57.705Z,100861.38
2022-09-25T08:52:26.139Z,100854.13
2022-09-25T08:54:54.629Z,100851.91
2022-09-25T08:57:34.989Z,100856.94
2022-09-25T09:00:07.748Z,100858.72
2022-09-25T09:02:42.683Z,100852.78
2022-09-25T09:05:18.883Z,100857.41
2022-09-25T09:07:55.114Z,100856.03
2022-09-25T09:10:33.534Z,100850.63
2022-09-25T09:13:16.547Z,100840.13
2022-09-25T09:15:48.062Z,100849.28
2022-09-25T09:18:22.649Z,100840.91
2022-09-25T09:20:53.915Z,100840.09
2022-09-25T09:23:24.397Z,100842.19
2022-09-25T09:26:07.089Z,100847.03
2022-09-25T09:29:01.444Z,100839.13
2022-09-25T09:31:37.535Z,100841.00
2022-09-25T09:34:53.808Z,100835.97
2022-09-25T09:37:31.731Z,100829.03
2022-09-25T09:40:17.029Z,100832.81
2022-09-25T09:42:56.217Z,100827.53
2022-09-25T09:45:33.262Z,100826.00
2022-09-25T09:48:16.554Z,100820.84
2022-09-25T09:50:52.595Z,100817.38
2022-09-25T09:53:35.347Z,100813.41
2022-09-25T09:56:09.381Z,100819.13
2022-09-25T09:58:54.514Z,100815.06
2022-09-25T10:01:40.762Z,100806.47
2022-09-25T10:04:12.642Z,100810.63
2022-09-25T10:06:45.366Z,100809.78
2022-09-25T10:09:16.570Z,100806.97
2022-09-25T10:11:46.957Z,100807.84
2022-09-25T10:14:21.408Z,100799.16
2022-09-25T10:16:53.356Z,100798.81
2022-09-25T10:19:25.319Z,100789.31
2022-09-25T10:21:56.508Z,100787.78
2022-09-25T10:24:51.477Z,100779.97
2022-09-25T10:27:28.842Z,100777.91
2022-09-25T10:30:08.217Z,100773.13
2022-09-25T10:32:47.956Z,100766.63
2022-09-25T10:35:18.406Z,100771.13
2022-09-25T10:37:50.319Z,100758.88
2022-09-25T10:40:28.468Z,100762.53
2022-09-25T10:43:15.519Z,100769.47
2022-09-25T10:45:44.057Z,100759.91
2022-09-25T10:48:50.764Z,100761.38
2022-09-25T10:51:21.442Z,100762.91
2022-09-25T10:53:50.970Z,100750.25
2022-09-25T10:56:27.854Z,100747.94
2022-09-25T10:58:59.808Z,100746.06
2022-09-25T11:01:35.564Z,100741.00
2022-09-25T11:04:16.019Z,100734.81
2022-09-25T11:06:48.323Z,100736.94
2022-09-25T11:09:19.832Z,100724.09
2022-09-25T11:11:49.934Z,100728.28
2022-09-25T11:14:28.763Z,100723.75
2022-09-25T11:16:57.663Z,100730.03
2022-09-25T11:19:30.160Z,100731.75
2022-09-25T11:22:16.779Z,100725.31
2022-09-25T11:25:00.190Z,100720.13
2022-09-25T11:27:36.211Z,100726.22
2022-09-25T11:30:10.180Z,100723.75
2022-09-25T11:32:51.636Z,100731.94
2022-09-25T11:35:41.107Z,100727.50
2022-09-25T11:38:18.951Z,100725.91
2022-09-25T11:41:17.138Z,100725.44
2022-09-25T11:43:58.025Z,100723.78
2022-09-25T11:46:35.520Z,100723.63
2022-09-25T11:49:16.497Z,100717.59
2022-09-25T11:52:24.164Z,100717.75
2022-09-25T11:55:14.954Z,100710.81
2022-09-25T11:57:54.523Z,100717.53
2022-09-25T12:00:28.692Z,100703.69
2022-09-25T12:03:24.497Z,100708.56
2022-09-25T12:06:14.361Z,100702.34
2022-09-25T12:08:57.295Z,100702.84
2022-09-25T12:11:38.064Z,100710.38
2022-09-25T12:14:14.658Z,100712.09
2022-09-25T12:16:52.013Z,100707.94
2022-09-25T12:19:33.425Z,100711.53
2022-09-25T12:22:09.676Z,100708.66
2022-09-25T12:24:49.615Z,100700.31
2022-09-25T12:27:32.785Z,100700.81
2022-09-25T12:30:19.990Z,100702.72
2022-09-25T12:33:09.423Z,100693.59
2022-09-25T12:35:44.332Z,100687.19
2022-09-25T12:38:24.352Z,100691.59
2022-09-25T12:40:56.852Z,100685.97
2022-09-25T12:43:33.668Z,100680.97
2022-09-25T12:46:10.441Z,100684.69
2022-09-25T12:48:44.760Z,100676.78
2022-09-25T12:51:19.147Z,100674.72
2022-09-25T12:53:51.260Z,100681.66
2022-09-25T12:56:24.883Z,100679.81
2022-09-25T12:59:07.581Z,100690.94
2022-09-25T13:01:46.033Z,100673.00
2022-09-25T13:04:34.043Z,100659.78
2022-09-25T13:07:10.193Z,100673.13
2022-09-25T13:09:43.544Z,100665.78
2022-09-25T13:12:19.160Z,100659.19
2022-09-25T13:14:54.236Z,100653.91
2022-09-25T13:17:23.029Z,100655.19
2022-09-25T13:19:51.276Z,100657.19
2022-09-25T13:22:27.574Z,100659.91
2022-09-25T13:25:02.278Z,100661.19
2022-09-25T13:27:40.294Z,100658.44
2022-09-25T13:30:23.867Z,100652.47
2022-09-25T13:32:54.997Z,100654.09
2022-09-25T13:35:25.110Z,100657.78
2022-09-25T13:37:56.328Z,100655.88
2022-09-25T13:40:45.218Z,100646.16
2022-09-25T13:43:22.549Z,100629.84
2022-09-25T13:46:25.046Z,100630.72
2022-09-25T13:48:55.556Z,100632.31
2022-09-25T13:51:36.836Z,100628.22
2022-09-25T13:54:25.617Z,100633.66
2022-09-25T13:56:54.431Z,100632.00
2022-09-25T13:59:37.699Z,100627.28
2022-09-25T14:02:42.167Z,100623.44
2022-09-25T14:05:17.376Z,100628.06
2022-09-25T14:07:46.989Z,100630.72
2022-09-25T14:10:15.646Z,100635.63
2022-09-25T14:12:46.322Z,100625.41
2022-09-25T14:15:28.631Z,100628.41
2022-09-25T14:18:00.990Z,100627.56
2022-09-25T14:20:37.478Z,100618.78
2022-09-25T14:23:12.484Z,100612.53
2022-09-25T14:25:44.662Z,100606.38
2022-09-25T14:28:21.188Z,100607.94
2022-09-25T14:30:54.561Z,100609.81
2022-09-25T14:33:38.978Z,100619.88
2022-09-25T14:36:19.861Z,100622.50
2022-09-25T14:39:01.526Z,100624.81
2022-09-25T14:41:56.674Z,100621.28
2022-09-25T14:44:45.515Z,100621.63
2022-09-25T14:47:17.801Z,100620.34
2022-09-25T14:49:51.857Z,100614.94
2022-09-25T14:52:25.010Z,100619.50
2022-09-25T14:54:57.085Z,100615.53
2022-09-25T14:57:29.467Z,100608.78
2022-09-25T15:00:01.688Z,100619.22
2022-09-25T15:02:34.252Z,100619.22
2022-09-25T15:08:03.438Z,100627.88
2022-09-25T15:10:33.641Z,100620.25
2022-09-25T15:13:15.983Z,100614.06
2022-09-25T15:16:06.890Z,100622.19
2022-09-25T15:18:38.155Z,100623.25
2022-09-25T15:21:09.617Z,100624.63
2022-09-25T15:23:39.325Z,100616.41
2022-09-25T15:26:07.789Z,100623.56
2022-09-25T15:28:41.137Z,100620.31
2022-09-25T15:31:09.619Z,100614.38
2022-09-25T15:33:39.855Z,100610.97
2022-09-25T15:36:20.325Z,100610.34
2022-09-25T15:38:55.896Z,100605.16
2022-09-25T15:41:24.890Z,100604.97
2022-09-25T15:43:53.574Z,100608.56
2022-09-25T15:46:40.313Z,100608.00
2022-09-25T15:49:08.733Z,100608.91
2022-09-25T15:51:38.298Z,100605.53
2022-09-25T15:54:41.575Z,100609.19
2022-09-25T15:57:14.020Z,100612.47
2022-09-25T15:59:59.150Z,100605.97
2022-09-25T16:02:48.760Z,100602.03
2022-09-25T16:05:24.901Z,100595.63
2022-09-25T16:07:56.224Z,100601.38
2022-09-25T16:10:34.539Z,100602.50
2022-09-25T16:13:03.420Z,100604.97
2022-09-25T16:15:46.888Z,100604.09
2022-09-25T16:18:41.094Z,100592.97
2022-09-25T16:21:19.674Z,100595.66
2022-09-25T16:23:56.106Z,100589.22
2022-09-25T16:26:29.975Z,100575.16
2022-09-25T16:29:05.888Z,100574.38
2022-09-25T16:31:36.589Z,100581.88
2022-09-25T16:34:06.129Z,100578.41
2022-09-25T16:36:45.198Z,100584.16
2022-09-25T16:39:24.130Z,100590.59
2022-09-25T16:41:54.075Z,100593.63
2022-09-25T16:44:24.449Z,100592.41
2022-09-25T16:47:24.077Z,100597.22
2022-09-25T16:49:52.274Z,100591.91
2022-09-25T16:52:25.963Z,100587.84
2022-09-25T16:54:57.033Z,100579.75
2022-09-25T16:57:29.327Z,100587.00
2022-09-25T16:59:57.801Z,100594.19
2022-09-25T17:02:36.031Z,100594.72
2022-09-25T17:05:06.568Z,100591.47
2022-09-25T17:07:34.946Z,100596.88
2022-09-25T17:10:03.161Z,100600.69
2022-09-25T17:12:33.011Z,100601.81
2022-09-25T17:15:01.331Z,100605.78
2022-09-25T17:17:31.166Z,100602.63
2022-09-25T17:19:59.451Z,100608.03
2022-09-25T17:22:30.409Z,100608.81
2022-09-25T17:25:02.826Z,100614.88
2022-09-25T17:27:32.453Z,100608.56
2022-09-25T17:30:01.392Z,100600.59
2022-09-25T17:32:31.407Z,100608.38
2022-09-25T17:35:02.184Z,100601.97
2022-09-25T17:37:30.509Z,100593.19
2022-09-25T17:39:59.235Z,100595.88
2022-09-25T17:42:27.816Z,100594.44
2022-09-25T17:44:57.643Z,100589.81
2022-09-25T17:47:26.564Z,100594.19
2022-09-25T17:49:54.777Z,100598.00
2022-09-25T17:52:22.911Z,100598.47
2022-09-25T17:54:50.993Z,100596.22
2022-09-25T17:57:19.287Z,100597.34
2022-09-25T17:59:47.427Z,100593.63
2022-09-25T18:02:18.162Z,100594.72
2022-09-25T18:04:46.305Z,100603.06
2022-09-25T18:07:15.354Z,100599.34
2022-09-25T18:09:43.514Z,100593.84
2022-09-25T18:12:11.622Z,100595.72
2022-09-25T18:14:39.755Z,100597.34
2022-09-25T18:17:07.860Z,100587.53
2022-09-25T18:19:54.849Z,100582.72
2022-09-25T18:22:25.687Z,100595.06
2022-09-25T18:24:56.962Z,100588.78
2022-09-25T18:27:27.017Z,100589.44
2022-09-25T18:29:55.228Z,100599.72
2022-09-25T18:32:24.257Z,100593.53
2022-09-25T18:34:54.172Z,100591.25
2022-09-25T18:37:22.383Z,100577.75
2022-09-25T18:39:51.245Z,100573.00
2022-09-25T18:42:19.972Z,100571.22
2022-09-25T18:44:48.817Z,100575.25
2022-09-25T18:47:16.897Z,100567.91
2022-09-25T18:49:45.458Z,100566.34
2022-09-25T18:52:15.914Z,100564.91
2022-09-25T18:54:44.098Z,100565.03
2022-09-25T18:57:13.612Z,100568.72
2022-09-25T18:59:42.112Z,100566.34
2022-09-25T19:02:20.664Z,100570.06
2022-09-25T19:04:49.630Z,100567.81
2022-09-25T19:07:19.668Z,100571.63
2022-09-25T19:09:47.793Z,100578.97
2022-09-25T19:12:17.159Z,100579.84
2022-09-25T19:14:45.651Z,100586.94
2022-09-25T19:17:14.648Z,100582.44
2022-09-25T19:19:44.016Z,100576.56
2022-09-25T19:22:17.986Z,100571.56
2022-09-25T19:24:48.378Z,100577.91
2022-09-25T19:27:18.235Z,100581.88
2022-09-25T19:29:46.987Z,100582.19
2022-09-25T19:32:17.834Z,100579.72
2022-09-25T19:34:46.342Z,100582.72
2022-09-25T19:37:15.388Z,100572.09
2022-09-25T19:40:01.054Z,100572.63
2022-09-25T19:42:33.714Z,100570.34
2022-09-25T19:45:02.315Z,100578.41
2022-09-25T19:47:30.397Z,100581.91
2022-09-25T19:49:58.546Z,100574.38
2022-09-25T19:52:26.697Z,100571.00
2022-09-25T19:54:54.827Z,100568.78
2022-09-25T19:57:22.977Z,100568.59
2022-09-25T19:59:52.910Z,100574.13
2022-09-25T20:02:21.730Z,100577.38
2022-09-25T20:04:50.156Z,100562.31
2022-09-25T20:07:19.088Z,100564.13
2022-09-25T20:09:47.617Z,100571.34
2022-09-25T20:12:15.958Z,100576.03
2022-09-25T20:14:44.613Z,100570.06
2022-09-25T20:17:14.452Z,100570.19
2022-09-25T20:19:43.530Z,100563.03
2022-09-25T20:22:11.811Z,100563.03
2022-09-25T20:24:40.072Z,100574.25
2022-09-25T20:27:08.477Z,100571.19
2022-09-25T20:29:36.714Z,100567.22
2022-09-25T20:32:05.368Z,100573.09
2022-09-25T20:34:34.938Z,100573.09
2022-09-25T20:37:03.801Z,100572.72
2022-09-25T20:39:31.931Z,100575.88
2022-09-25T20:42:00.170Z,100583.44
2022-09-25T20:44:28.289Z,100579.84
2022-09-25T20:46:56.462Z,100579.59
2022-09-25T20:49:49.529Z,100579.59
2022-09-25T20:52:17.646Z,100572.34
2022-09-25T20:54:45.794Z,100578.16
2022-09-25T20:57:14.090Z,100581.50
2022-09-25T20:59:43.662Z,100578.38
2022-09-25T21:02:12.248Z,100574.31
2022-09-25T21:04:40.465Z,100572.81
2022-09-25T21:07:15.880Z,100573.06
2022-09-25T21:09:45.337Z,100570.38
2022-09-25T21:12:14.106Z,100569.72
2022-09-25T21:14:42.274Z,100562.84
2022-09-25T21:17:10.737Z,100566.16
2022-09-25T21:19:39.806Z,100559.16
2022-09-25T21:22:07.945Z,100566.81
2022-09-25T21:24:37.459Z,100560.31
2022-09-25T21:27:05.607Z,100556.88
2022-09-25T21:29:33.907Z,100554.03
2022-09-25T21:32:02.743Z,100544.97
2022-09-25T21:34:31.507Z,100544.84
2022-09-25T21:36:59.667Z,100543.19
2022-09-25T21:39:27.860Z,100531.69
2022-09-25T21:41:57.574Z,100533.84
2022-09-25T21:44:26.934Z,100531.03
2022-09-25T21:46:55.143Z,100522.31
2022-09-25T21:49:23.750Z,100516.53
2022-09-25T21:51:52.510Z,100527.44
2022-09-25T21:54:20.802Z,100517.88
2022-09-25T21:56:50.140Z,100507.56
2022-09-25T21:59:19.679Z,100515.75
2022-09-25T22:01:47.849Z,100510.81
2022-09-25T22:04:16.719Z,100515.28
2022-09-25T22:06:47.183Z,100506.59
2022-09-25T22:09:17.702Z,100499.72
2022-09-25T22:11:48.066Z,100499.09
2022-09-25T22:14:16.942Z,100490.25
2022-09-25T22:16:49.350Z,100499.09
2022-09-25T22:19:20.831Z,100493.94
2022-09-25T22:21:50.918Z,100492.66
2022-09-25T22:24:20.056Z,100485.78
2022-09-25T22:26:49.504Z,100485.34
2022-09-25T22:29:17.659Z,100494.31
2022-09-25T22:31:48.113Z,100485.28
2022-09-25T22:34:20.280Z,100484.69
2022-09-25T22:36:50.812Z,100469.25
2022-09-25T22:39:21.441Z,100476.25
2022-09-25T22:41:50.920Z,100476.25
2022-09-25T22:44:19.787Z,100482.47
2022-09-25T22:46:49.617Z,100470.72
2022-09-25T22:49:17.789Z,100471.84
2022-09-25T22:51:46.118Z,100470.22
2022-09-25T22:54:15.337Z,100466.91
2022-09-25T22:56:44.648Z,100461.56
2022-09-25T22:59:16.250Z,100459.81
2022-09-25T23:01:46.648Z,100464.66
2022-09-25T23:04:17.983Z,100457.72
2022-09-25T23:06:46.569Z,100462.97
2022-09-25T23:09:16.603Z,100466.22
2022-09-25T23:11:44.924Z,100468.72
2022-09-25T23:14:17.076Z,100455.19
2022-09-25T23:16:46.461Z,100460.09
2022-09-25T23:19:16.764Z,100448.06
2022-09-25T23:21:45.145Z,100454.50
2022-09-25T23:24:15.055Z,100455.44
2022-09-25T23:26:43.998Z,100457.00
2022-09-25T23:29:13.776Z,100449.44
2022-09-25T23:31:42.816Z,100451.47
2022-09-25T23:34:11.492Z,100448.91
2022-09-25T23:36:41.499Z,100443.41
2022-09-25T23:39:11.875Z,100437.34
2022-09-25T23:41:41.213Z,100436.31
2022-09-25T23:44:11.229Z,100426.69
2022-09-25T23:46:41.732Z,100423.91
2022-09-25T23:49:10.955Z,100413.94
2022-09-25T23:51:40.763Z,100419.25
2022-09-25T23:54:09.259Z,100406.56
2022-09-25T23:56:37.661Z,100413.56
2022-09-25T23:59:06.487Z,100415.00
